Time;durP1;ratioP1;P1;durP2;ratioP2;P2;SDS_P1;SDS_P2;PMS_P1;PMS_P2;Temp;Humidity;BMP_temperature;BMP_pressure;BME280_temperature;BME280_humidity;BME280_pressure;Samples;Min_cycle;Max_cycle;Signal;HPM_P1;HPM_P2
2022/05/17 00:00:10;;;;;;;9.60;8.53;;;17.60;79.80;;;;;;4978451;28;20565;-45
2022/05/17 00:02:36;;;;;;;11.23;10.10;;;17.60;80.00;;;;;;4983260;28;20469;-46
2022/05/17 00:05:04;;;;;;;10.50;8.90;;;17.50;80.20;;;;;;4977164;28;20561;-46
2022/05/17 00:07:30;;;;;;;10.57;7.87;;;17.50;80.30;;;;;;4977759;28;20473;-46
2022/05/17 00:09:57;;;;;;;10.57;9.47;;;17.50;80.00;;;;;;4975894;28;20476;-46
2022/05/17 00:12:24;;;;;;;11.30;9.37;;;17.50;79.90;;;;;;4959902;28;20471;-46
2022/05/17 00:14:52;;;;;;;13.13;10.50;;;17.50;80.00;;;;;;4978833;28;20476;-46
2022/05/17 00:17:19;;;;;;;11.20;9.33;;;17.40;80.20;;;;;;4981991;28;20472;-46
2022/05/17 00:19:46;;;;;;;10.90;9.63;;;17.40;80.30;;;;;;4981826;28;20900;-46
2022/05/17 00:22:13;;;;;;;11.20;10.03;;;17.30;80.50;;;;;;4985083;28;20461;-46
2022/05/17 00:24:40;;;;;;;11.60;8.90;;;17.30;80.70;;;;;;4982518;28;20453;-46
2022/05/17 00:27:07;;;;;;;10.57;9.10;;;17.30;80.80;;;;;;4979969;28;20461;-46
2022/05/17 00:29:34;;;;;;;10.47;9.50;;;17.30;80.90;;;;;;4982782;28;20456;-46
2022/05/17 00:32:01;;;;;;;11.30;8.97;;;17.30;80.90;;;;;;4979984;28;20862;-46
2022/05/17 00:34:28;;;;;;;10.87;9.67;;;17.30;81.00;;;;;;4981962;28;20465;-46
2022/05/17 00:36:55;;;;;;;10.17;8.57;;;17.30;80.90;;;;;;4985817;28;20565;-46
2022/05/17 00:39:21;;;;;;;9.50;8.30;;;17.30;81.00;;;;;;4981238;28;20553;-46
2022/05/17 00:41:48;;;;;;;11.90;10.00;;;17.30;81.00;;;;;;4977707;28;20475;-46
2022/05/17 00:47:07;;;;;;;10.47;8.97;;;17.30;81.20;;;;;;4979062;28;20466;-46
2022/05/17 00:49:40;;;;;;;10.50;8.90;;;17.20;81.30;;;;;;4979393;28;21058;-46
2022/05/17 00:52:12;;;;;;;10.97;9.80;;;17.20;81.30;;;;;;4980625;28;20536;-46
2022/05/17 00:54:41;;;;;;;12.53;9.67;;;17.20;81.30;;;;;;4977525;28;21011;-46
2022/05/17 00:57:31;;;;;;;11.27;9.40;;;17.20;81.30;;;;;;4981282;28;21058;-46
2022/05/17 01:00:01;;;;;;;10.30;8.77;;;17.20;81.40;;;;;;4967837;28;20500;-46
2022/05/17 01:02:29;;;;;;;9.80;8.80;;;17.20;81.20;;;;;;4982894;28;20493;-46
2022/05/17 01:04:57;;;;;;;10.23;8.93;;;17.20;81.20;;;;;;4982873;28;20553;-46
2022/05/17 01:07:28;;;;;;;11.20;9.03;;;17.20;81.20;;;;;;4981549;28;21015;-47
2022/05/17 01:09:56;;;;;;;9.40;8.40;;;17.20;81.20;;;;;;4973615;28;20935;-46
2022/05/17 01:12:22;;;;;;;10.37;9.27;;;17.10;81.20;;;;;;4979562;28;20458;-46
2022/05/17 01:14:58;;;;;;;9.60;8.57;;;17.10;81.10;;;;;;4975686;28;20484;-46
2022/05/17 01:17:26;;;;;;;11.53;10.13;;;17.10;81.00;;;;;;4979085;28;20552;-46
2022/05/17 01:19:54;;;;;;;10.27;9.20;;;17.10;81.00;;;;;;4964621;28;20496;-46
2022/05/17 01:22:21;;;;;;;9.63;8.43;;;17.10;81.00;;;;;;4976666;28;21037;-46
2022/05/17 01:24:49;;;;;;;10.37;8.50;;;17.10;81.00;;;;;;4978558;28;20562;-46
2022/05/17 01:27:37;;;;;;;10.87;9.73;;;17.00;81.00;;;;;;4979842;28;20919;-46
2022/05/17 01:30:05;;;;;;;12.70;9.43;;;17.00;81.00;;;;;;4960976;28;20476;-46
2022/05/17 01:32:33;;;;;;;13.50;11.13;;;17.00;81.00;;;;;;4980923;28;20493;-46
2022/05/17 01:35:00;;;;;;;13.90;9.50;;;17.00;80.90;;;;;;4979412;28;20489;-45
2022/05/17 01:37:27;;;;;;;11.20;10.07;;;17.00;80.70;;;;;;4972956;28;20956;-46
2022/05/17 01:39:54;;;;;;;13.67;9.90;;;17.00;80.60;;;;;;4977822;28;20473;-45
2022/05/17 01:42:20;;;;;;;14.13;9.93;;;17.00;80.40;;;;;;4982336;28;20832;-45
2022/05/17 01:44:47;;;;;;;12.17;9.70;;;17.00;80.50;;;;;;4982084;28;20475;-46
2022/05/17 01:47:14;;;;;;;11.23;10.03;;;16.90;80.60;;;;;;4982986;28;20478;-47
2022/05/17 01:49:41;;;;;;;10.60;9.60;;;16.90;80.80;;;;;;4981679;28;20469;-46
2022/05/17 01:52:08;;;;;;;16.53;9.07;;;16.90;80.70;;;;;;4980548;28;20468;-46
2022/05/17 01:54:35;;;;;;;12.50;9.80;;;16.90;80.80;;;;;;4981117;28;20474;-46
2022/05/17 01:57:02;;;;;;;11.80;10.50;;;16.90;80.70;;;;;;4980485;28;20479;-46
2022/05/17 01:59:29;;;;;;;10.40;8.83;;;16.90;80.50;;;;;;4979023;28;20911;-46
2022/05/17 02:01:56;;;;;;;12.80;10.77;;;16.80;80.60;;;;;;4980037;28;21100;-45
2022/05/17 02:04:23;;;;;;;11.07;9.60;;;16.80;80.80;;;;;;4980734;28;20494;-46
2022/05/17 02:06:49;;;;;;;12.80;10.30;;;16.80;80.90;;;;;;4977471;28;20846;-47
2022/05/17 02:09:16;;;;;;;13.13;10.03;;;16.80;80.90;;;;;;4982051;28;20465;-46
2022/05/17 02:11:43;;;;;;;15.00;12.17;;;16.80;80.90;;;;;;4983025;28;20538;-48
2022/05/17 02:14:09;;;;;;;11.10;9.80;;;16.80;80.80;;;;;;4983085;28;20469;-49
2022/05/17 02:16:38;;;;;;;11.97;9.70;;;16.70;80.80;;;;;;4982239;28;20457;-49
2022/05/17 02:19:08;;;;;;;12.57;10.10;;;16.70;80.70;;;;;;4973613;28;20478;-48
2022/05/17 02:21:36;;;;;;;11.27;10.07;;;16.70;80.60;;;;;;4973983;28;20493;-49
2022/05/17 02:24:04;;;;;;;12.93;11.10;;;16.70;80.60;;;;;;4973126;28;20471;-49
2022/05/17 02:26:31;;;;;;;10.57;9.43;;;16.70;80.60;;;;;;4980536;28;20525;-49
2022/05/17 02:28:58;;;;;;;12.00;10.20;;;16.60;80.60;;;;;;4978608;28;20471;-49
2022/05/17 02:31:25;;;;;;;12.60;10.60;;;16.60;80.60;;;;;;4980359;28;20491;-49
2022/05/17 02:33:52;;;;;;;13.30;11.07;;;16.60;80.60;;;;;;4977552;28;20478;-49
2022/05/17 02:36:18;;;;;;;13.20;10.33;;;16.60;80.70;;;;;;4981907;28;20468;-48
2022/05/17 02:38:45;;;;;;;14.10;10.53;;;16.50;80.80;;;;;;4965007;28;20471;-48
2022/05/17 02:41:13;;;;;;;12.10;10.90;;;16.50;80.90;;;;;;4975092;28;20484;-43
2022/05/17 02:43:39;;;;;;;12.00;10.47;;;16.50;81.10;;;;;;4980550;28;20968;-43
2022/05/17 02:46:07;;;;;;;12.60;10.20;;;16.50;81.00;;;;;;4978726;28;20469;-44
2022/05/17 02:48:35;;;;;;;14.17;10.73;;;16.50;80.90;;;;;;4982300;28;20469;-44
2022/05/17 02:51:14;;;;;;;10.97;9.90;;;16.50;81.00;;;;;;4972158;28;20470;-43
2022/05/17 02:53:41;;;;;;;13.50;10.10;;;16.50;80.90;;;;;;4973875;28;20477;-43
2022/05/17 02:56:08;;;;;;;11.90;10.10;;;16.40;81.00;;;;;;4979310;28;20492;-43
2022/05/17 02:58:37;;;;;;;13.27;11.07;;;16.40;81.10;;;;;;4978239;28;20498;-43
2022/05/17 03:01:06;;;;;;;11.43;10.23;;;16.30;81.20;;;;;;4970462;28;20568;-43
2022/05/17 03:03:40;;;;;;;10.73;9.63;;;16.30;81.40;;;;;;4977245;28;20487;-44
2022/05/17 03:06:08;;;;;;;14.40;11.77;;;16.30;81.30;;;;;;4982372;28;20533;-43
2022/05/17 03:08:35;;;;;;;19.57;11.30;;;16.30;81.30;;;;;;4979558;28;20468;-43
2022/05/17 03:11:03;;;;;;;11.27;10.10;;;16.30;81.40;;;;;;4981187;28;20469;-43
2022/05/17 03:13:29;;;;;;;10.93;9.90;;;16.30;81.30;;;;;;4959421;28;20833;-43
2022/05/17 03:15:56;;;;;;;11.33;10.23;;;16.30;81.10;;;;;;4988762;28;20484;-44
2022/05/17 03:18:23;;;;;;;11.50;10.30;;;16.20;81.10;;;;;;4977953;28;20528;-43
2022/05/17 03:20:50;;;;;;;12.47;10.20;;;16.20;81.00;;;;;;4970366;28;20782;-44
2022/05/17 03:23:17;;;;;;;11.93;10.37;;;16.20;81.10;;;;;;4978044;28;20593;-44
2022/05/17 03:25:44;;;;;;;11.67;10.47;;;16.20;81.20;;;;;;4975307;28;20471;-43
2022/05/17 03:28:12;;;;;;;13.07;10.67;;;16.10;81.20;;;;;;4971675;28;20556;-43
2022/05/17 03:30:40;;;;;;;13.00;10.60;;;16.10;81.20;;;;;;4973122;28;20946;-44
2022/05/17 03:33:07;;;;;;;14.63;10.07;;;16.10;81.30;;;;;;4975417;28;20943;-44
2022/05/17 03:35:34;;;;;;;12.10;11.00;;;16.10;81.40;;;;;;4979040;28;20465;-46
2022/05/17 03:38:02;;;;;;;11.20;10.00;;;16.10;81.40;;;;;;4980294;28;20460;-46
2022/05/17 03:40:29;;;;;;;10.50;9.40;;;16.10;81.20;;;;;;4972327;28;20475;-45
2022/05/17 03:42:55;;;;;;;9.20;8.20;;;16.20;80.80;;;;;;4980338;28;20869;-46
2022/05/17 03:45:22;;;;;;;12.17;9.60;;;16.20;80.30;;;;;;4980247;28;20567;-46
2022/05/17 03:47:50;;;;;;;9.90;8.90;;;16.10;80.50;;;;;;4975814;28;20998;-46
2022/05/17 03:50:17;;;;;;;10.53;9.53;;;16.10;80.50;;;;;;4979200;28;20472;-46
2022/05/17 03:52:44;;;;;;;9.73;8.67;;;16.00;80.50;;;;;;4976758;28;20469;-46
2022/05/17 03:55:12;;;;;;;11.30;10.20;;;16.00;80.60;;;;;;4975295;28;20493;-46
2022/05/17 03:57:38;;;;;;;11.20;10.00;;;16.00;80.60;;;;;;4977120;28;20609;-45
2022/05/17 04:00:07;;;;;;;10.27;8.80;;;16.00;80.50;;;;;;4971471;28;20839;-45
2022/05/17 04:02:37;;;;;;;10.77;9.77;;;15.90;80.50;;;;;;4980430;28;20556;-46
2022/05/17 04:05:04;;;;;;;12.77;9.20;;;15.90;80.60;;;;;;4978922;28;20528;-46
2022/05/17 04:07:31;;;;;;;15.23;11.70;;;15.90;80.80;;;;;;4979117;28;20461;-46
2022/05/17 04:09:58;;;;;;;13.63;10.47;;;15.80;81.10;;;;;;4956870;28;20466;-46
2022/05/17 04:12:24;;;;;;;11.03;9.83;;;15.80;81.20;;;;;;4976548;28;20479;-46
2022/05/17 04:14:53;;;;;;;11.13;10.03;;;15.80;81.30;;;;;;4990723;28;20476;-46
2022/05/17 04:17:20;;;;;;;14.00;10.10;;;15.80;81.40;;;;;;4980057;28;20740;-46
2022/05/17 04:19:47;;;;;;;10.20;9.20;;;15.80;81.50;;;;;;4976595;28;20477;-46
2022/05/17 04:22:14;;;;;;;11.97;10.77;;;15.80;81.50;;;;;;4979581;28;20489;-47
2022/05/17 04:24:41;;;;;;;13.17;9.63;;;15.90;81.40;;;;;;4974576;28;20469;-46
2022/05/17 04:27:09;;;;;;;12.27;11.07;;;15.90;81.50;;;;;;4978353;28;20505;-46
2022/05/17 04:29:37;;;;;;;14.13;10.70;;;15.90;81.50;;;;;;4978876;28;20478;-47
2022/05/17 04:32:05;;;;;;;11.90;10.80;;;15.90;81.70;;;;;;4974505;28;21151;-46
2022/05/17 04:34:32;;;;;;;10.67;9.57;;;15.90;81.90;;;;;;4977423;28;20567;-47
2022/05/17 04:36:59;;;;;;;12.03;10.83;;;15.90;82.10;;;;;;4986212;28;20480;-47
2022/05/17 04:39:26;;;;;;;12.57;10.60;;;15.90;82.30;;;;;;4973265;28;20466;-46
2022/05/17 04:41:52;;;;;;;12.60;10.70;;;16.00;82.40;;;;;;4953507;28;20878;-46
2022/05/17 04:44:19;;;;;;;12.77;10.27;;;16.00;82.50;;;;;;4974044;28;20462;-46
2022/05/17 04:46:46;;;;;;;11.43;10.33;;;16.00;82.50;;;;;;4975856;28;20471;-46
2022/05/17 04:49:13;;;;;;;13.60;11.00;;;16.00;82.70;;;;;;4977410;28;20473;-45
2022/05/17 04:51:40;;;;;;;13.13;11.17;;;16.00;82.90;;;;;;4975507;28;20856;-46
2022/05/17 04:54:07;;;;;;;12.40;10.87;;;16.10;82.90;;;;;;4976851;28;20474;-46
2022/05/17 04:56:34;;;;;;;13.63;10.77;;;16.20;82.60;;;;;;4975839;28;20836;-46
2022/05/17 04:59:02;;;;;;;14.50;11.37;;;16.20;82.80;;;;;;4976606;28;20852;-45
2022/05/17 05:01:31;;;;;;;10.60;9.50;;;16.20;82.80;;;;;;4975065;28;20496;-46
2022/05/17 05:03:58;;;;;;;12.83;11.47;;;16.20;82.70;;;;;;4974855;28;20477;-46
2022/05/17 05:06:27;;;;;;;14.03;12.30;;;16.30;82.60;;;;;;4983043;28;20461;-46
2022/05/17 05:08:53;;;;;;;11.80;10.60;;;16.40;82.30;;;;;;4978146;28;20480;-46
2022/05/17 05:11:20;;;;;;;11.60;10.23;;;16.40;82.40;;;;;;4978017;28;20479;-45
2022/05/17 05:13:47;;;;;;;13.80;10.43;;;16.40;82.40;;;;;;4980879;28;20465;-46
2022/05/17 05:16:14;;;;;;;13.33;11.03;;;16.50;82.20;;;;;;4979047;28;20465;-46
2022/05/17 05:18:41;;;;;;;11.20;10.10;;;16.50;82.30;;;;;;4983801;28;20964;-46
2022/05/17 05:21:12;;;;;;;14.97;11.53;;;16.50;82.50;;;;;;4976411;28;20481;-46
2022/05/17 05:23:40;;;;;;;13.17;11.40;;;16.50;82.80;;;;;;4976790;28;20589;-47
2022/05/17 05:26:09;;;;;;;13.00;11.20;;;16.60;82.70;;;;;;4973908;28;20462;-47
2022/05/17 05:28:36;;;;;;;13.00;11.60;;;16.60;82.50;;;;;;4978058;28;20469;-47
2022/05/17 05:31:04;;;;;;;12.97;11.63;;;16.70;82.30;;;;;;4979324;28;20868;-47
2022/05/17 05:33:33;;;;;;;12.83;11.20;;;16.80;82.00;;;;;;4978704;28;20473;-45
2022/05/17 05:36:00;;;;;;;11.93;10.83;;;16.80;82.00;;;;;;4981223;28;20476;-46
2022/05/17 05:38:27;;;;;;;12.50;11.17;;;16.80;82.00;;;;;;4977036;28;20480;-46
2022/05/17 05:40:54;;;;;;;12.87;11.50;;;16.90;82.30;;;;;;4975660;28;20480;-46
2022/05/17 05:43:21;;;;;;;12.67;10.63;;;16.90;82.40;;;;;;4976844;28;21110;-46
2022/05/17 05:45:47;;;;;;;12.20;10.90;;;17.00;82.00;;;;;;4995307;28;20475;-46
2022/05/17 05:48:15;;;;;;;12.33;11.10;;;17.00;81.80;;;;;;4975019;28;21042;-46
2022/05/17 05:50:41;;;;;;;11.87;10.67;;;17.10;81.70;;;;;;4982383;28;20462;-46
2022/05/17 05:53:11;;;;;;;12.60;11.30;;;17.10;81.70;;;;;;4986942;28;21094;-46
2022/05/17 05:55:40;;;;;;;11.50;10.37;;;17.10;81.80;;;;;;4980179;28;20471;-46
2022/05/17 05:58:07;;;;;;;14.43;10.70;;;17.20;81.90;;;;;;4978162;28;20478;-46
2022/05/17 06:00:35;;;;;;;13.00;10.63;;;17.30;81.60;;;;;;4979128;28;20867;-46
2022/05/17 06:03:03;;;;;;;9.90;8.60;;;17.40;81.20;;;;;;4979632;28;20928;-46
2022/05/17 06:05:30;;;;;;;13.10;10.23;;;17.50;81.20;;;;;;4976516;28;20451;-46
2022/05/17 06:07:57;;;;;;;11.63;10.43;;;17.60;81.00;;;;;;4959430;28;20471;-45
2022/05/17 06:10:24;;;;;;;14.37;11.17;;;17.70;80.90;;;;;;4976866;28;20474;-45
2022/05/17 06:12:51;;;;;;;10.70;9.70;;;17.70;80.50;;;;;;4976998;28;20475;-45
2022/05/17 06:15:18;;;;;;;13.50;10.53;;;17.80;80.80;;;;;;4976045;28;20542;-45
2022/05/17 06:17:49;;;;;;;12.50;10.00;;;17.80;80.60;;;;;;4989999;28;20918;-46
2022/05/17 06:20:16;;;;;;;13.37;9.43;;;17.90;80.20;;;;;;4981415;28;20472;-45
2022/05/17 06:22:43;;;;;;;10.67;8.87;;;18.00;80.20;;;;;;4983715;28;20493;-45
2022/05/17 06:25:11;;;;;;;11.13;9.10;;;18.10;80.00;;;;;;4971156;28;20971;-45
2022/05/17 06:27:38;;;;;;;13.50;10.13;;;18.10;79.80;;;;;;4981774;28;20458;-45
2022/05/17 06:30:05;;;;;;;8.47;7.60;;;18.10;80.10;;;;;;4980312;28;20489;-46
2022/05/17 06:32:32;;;;;;;9.23;8.30;;;18.20;80.20;;;;;;4978403;28;20585;-46
2022/05/17 06:35:00;;;;;;;10.77;9.10;;;18.40;79.70;;;;;;4982834;28;20509;-45
2022/05/17 06:37:27;;;;;;;11.10;8.23;;;18.50;79.10;;;;;;4978051;28;20560;-46
2022/05/17 06:39:54;;;;;;;9.10;8.10;;;18.60;78.80;;;;;;4976265;28;20477;-46
2022/05/17 06:42:22;;;;;;;10.80;7.90;;;18.70;77.50;;;;;;4979316;28;21034;-45
2022/05/17 06:44:49;;;;;;;10.53;7.87;;;18.80;76.80;;;;;;4991893;28;20465;-45
2022/05/17 06:47:16;;;;;;;9.73;6.93;;;18.80;77.20;;;;;;4981129;28;20460;-46
2022/05/17 06:49:43;;;;;;;7.60;6.77;;;18.90;77.10;;;;;;4980279;28;20893;-46
2022/05/17 06:52:09;;;;;;;8.97;8.17;;;19.00;77.00;;;;;;4977461;28;20480;-46
2022/05/17 06:54:41;;;;;;;10.93;6.33;;;19.00;77.00;;;;;;4982262;28;20484;-46
2022/05/17 06:57:10;;;;;;;7.67;6.73;;;19.10;76.90;;;;;;4975562;28;20471;-46
2022/05/17 06:59:37;;;;;;;10.67;5.93;;;19.30;76.70;;;;;;4976305;28;20907;-46
2022/05/17 07:02:05;;;;;;;7.90;6.23;;;19.40;75.70;;;;;;4980402;28;20536;-45
2022/05/17 07:04:33;;;;;;;7.80;6.80;;;19.50;74.90;;;;;;4979153;28;20461;-46
2022/05/17 07:07:01;;;;;;;7.90;5.13;;;19.70;74.90;;;;;;4977854;28;20437;-46
2022/05/17 07:09:29;;;;;;;7.50;6.30;;;19.80;74.10;;;;;;4979821;28;20470;-46
2022/05/17 07:14:46;;;;;;;7.73;5.40;;;20.10;71.00;;;;;;4980490;28;20465;-46
2022/05/17 07:17:19;;;;;;;7.90;6.10;;;20.20;71.30;;;;;;4974038;28;20524;-46
2022/05/17 07:19:46;;;;;;;7.30;6.60;;;20.40;71.00;;;;;;4976161;28;20967;-46
2022/05/17 07:22:13;;;;;;;7.30;6.20;;;20.60;69.80;;;;;;4978992;28;20608;-46
2022/05/17 07:24:41;;;;;;;9.60;6.00;;;20.90;69.80;;;;;;4973646;28;20824;-46
2022/05/17 07:27:09;;;;;;;7.73;6.03;;;21.00;69.20;;;;;;4980657;28;20459;-46
2022/05/17 07:29:47;;;;;;;7.33;5.80;;;21.10;69.90;;;;;;4975988;28;20476;-46
2022/05/17 07:32:14;;;;;;;10.93;5.90;;;21.20;69.60;;;;;;4973301;28;20485;-46
2022/05/17 07:34:41;;;;;;;11.37;6.10;;;21.40;68.30;;;;;;4978296;28;21013;-47
2022/05/17 07:37:09;;;;;;;7.97;5.87;;;21.60;68.40;;;;;;4980523;28;20461;-46
2022/05/17 07:39:35;;;;;;;6.10;5.43;;;21.80;68.70;;;;;;4977849;28;20974;-45
2022/05/17 07:42:04;;;;;;;7.57;4.47;;;21.90;68.70;;;;;;4980504;28;21054;-45
2022/05/17 07:44:32;;;;;;;8.90;5.40;;;22.20;66.30;;;;;;4976537;28;20515;-46
2022/05/17 07:46:58;;;;;;;7.67;4.83;;;22.20;64.50;;;;;;4978327;28;20462;-47
2022/05/17 07:49:26;;;;;;;7.40;5.37;;;22.30;64.60;;;;;;4978104;28;20456;-46
2022/05/17 07:51:53;;;;;;;8.73;5.23;;;22.40;64.50;;;;;;4978978;28;20476;-47
2022/05/17 07:54:20;;;;;;;7.67;5.00;;;22.40;64.90;;;;;;4990038;28;20453;-46
2022/05/17 07:56:46;;;;;;;6.87;4.43;;;22.50;64.50;;;;;;4977782;28;20461;-46
2022/05/17 07:59:14;;;;;;;6.67;4.50;;;22.60;64.80;;;;;;4977107;28;20468;-46
2022/05/17 08:01:41;;;;;;;8.27;5.20;;;22.80;64.70;;;;;;4976773;28;20499;-46
2022/05/17 08:04:08;;;;;;;7.83;5.50;;;23.00;64.60;;;;;;4979658;28;20541;-46
2022/05/17 08:06:35;;;;;;;5.73;4.20;;;23.00;63.80;;;;;;4975675;28;20464;-46
2022/05/17 08:09:03;;;;;;;7.50;5.10;;;23.10;63.10;;;;;;4971178;28;20548;-46
2022/05/17 08:11:30;;;;;;;5.87;5.20;;;23.20;63.50;;;;;;4977573;28;20467;-46
2022/05/17 08:13:58;;;;;;;7.30;5.23;;;23.30;61.60;;;;;;4979151;28;20457;-46
2022/05/17 08:16:39;;;;;;;9.07;5.80;;;23.40;62.60;;;;;;4973877;28;20460;-46
2022/05/17 08:19:06;;;;;;;7.23;4.83;;;23.40;62.40;;;;;;4977123;28;20874;-46
2022/05/17 08:21:33;;;;;;;7.90;5.30;;;23.40;60.90;;;;;;4978176;28;20800;-46
2022/05/17 08:23:59;;;;;;;7.53;4.50;;;23.40;61.50;;;;;;4978403;28;20464;-47
2022/05/17 08:29:12;;;;;;;4.80;3.00;;;23.50;60.70;;;;;;4980020;28;20496;-47
2022/05/17 08:31:39;;;;;;;3.30;2.93;;;23.70;60.00;;;;;;4978666;28;20573;-47
2022/05/17 08:34:08;;;;;;;5.27;3.10;;;23.80;58.90;;;;;;4976191;28;20556;-46
2022/05/17 08:36:35;;;;;;;7.10;3.10;;;23.90;57.90;;;;;;4972960;28;20549;-46
2022/05/17 08:39:02;;;;;;;7.77;2.93;;;24.10;56.00;;;;;;4979706;28;20463;-47
2022/05/17 08:42:02;;;;;;;6.70;2.60;;;24.10;55.60;;;;;;4996304;28;20448;-47
2022/05/17 08:44:43;;;;;;;5.87;2.60;;;24.10;54.00;;;;;;4980503;28;20842;-47
2022/05/17 08:47:21;;;;;;;2.67;1.73;;;24.20;54.40;;;;;;4978856;28;20463;-47
2022/05/17 08:50:16;;;;;;;4.10;2.33;;;24.30;53.50;;;;;;4972871;28;20978;-47
2022/05/17 08:52:44;;;;;;;4.67;3.00;;;24.50;54.20;;;;;;4979577;28;20494;-47
2022/05/17 08:55:22;;;;;;;6.27;3.70;;;24.60;53.70;;;;;;4968538;28;20539;-47
2022/05/17 08:58:20;;;;;;;4.90;4.33;;;24.60;53.70;;;;;;4982727;28;20468;-47
2022/05/17 09:00:54;;;;;;;4.90;3.40;;;24.70;53.50;;;;;;4979187;28;21041;-47
2022/05/17 09:03:35;;;;;;;6.73;4.07;;;24.70;53.10;;;;;;4981229;28;20488;-47
2022/05/17 09:06:24;;;;;;;4.03;3.63;;;24.80;53.40;;;;;;4979363;28;20460;-47
2022/05/17 09:09:04;;;;;;;10.43;5.10;;;24.90;53.90;;;;;;4997367;28;20556;-47
2022/05/17 09:11:38;;;;;;;17.50;4.70;;;25.10;54.60;;;;;;4980622;28;20831;-47
2022/05/17 09:14:09;;;;;;;8.57;3.90;;;25.20;54.20;;;;;;4980377;28;20496;-47
2022/05/17 09:16:45;;;;;;;6.60;4.87;;;25.40;54.50;;;;;;4958859;28;20522;-47
2022/05/17 09:19:15;;;;;;;8.23;3.83;;;25.40;53.90;;;;;;4980167;28;20965;-47
2022/05/17 09:21:44;;;;;;;6.47;3.53;;;25.50;53.90;;;;;;4985359;28;20468;-47
2022/05/17 09:24:23;;;;;;;5.60;4.23;;;25.60;53.70;;;;;;4969477;28;20541;-47
2022/05/17 09:27:25;;;;;;;3.20;2.50;;;25.60;52.10;;;;;;4978228;28;20475;-47
2022/05/17 09:30:21;;;;;;;6.10;3.50;;;25.70;51.90;;;;;;4982216;28;20814;-47
2022/05/17 09:32:58;;;;;;;5.77;3.10;;;26.00;51.50;;;;;;4974495;28;20484;-48
2022/05/17 09:35:25;;;;;;;5.17;2.60;;;26.20;50.50;;;;;;4978866;28;20556;-47
2022/05/17 09:37:56;;;;;;;6.23;2.97;;;26.50;50.70;;;;;;4980713;28;20473;-47
2022/05/17 09:40:30;;;;;;;6.07;2.80;;;26.70;49.60;;;;;;4980548;28;20572;-47
2022/05/17 09:42:57;;;;;;;4.70;2.40;;;27.00;48.10;;;;;;4979019;28;20485;-47
2022/05/17 09:45:49;;;;;;;5.93;2.47;;;27.20;47.40;;;;;;4961410;28;20464;-47
2022/05/17 09:54:44;;;;;;;3.73;2.30;;;27.70;45.90;;;;;;4983552;28;20201;-47
2022/05/17 09:57:12;;;;;;;4.27;2.70;;;28.00;46.70;;;;;;4974145;28;20212;-47
2022/05/17 09:59:39;;;;;;;3.30;2.20;;;28.10;45.80;;;;;;4980016;28;20217;-47
2022/05/17 10:02:32;;;;;;;3.27;2.40;;;28.20;46.10;;;;;;4972955;28;20215;-46
2022/05/17 10:05:09;;;;;;;2.50;2.00;;;28.30;46.10;;;;;;4980685;28;20292;-47
2022/05/17 10:07:36;;;;;;;4.00;2.00;;;28.40;45.30;;;;;;4995772;28;20210;-47
2022/05/17 10:10:24;;;;;;;3.90;2.53;;;28.50;44.60;;;;;;4978319;28;20248;-47
2022/05/17 10:12:56;;;;;;;4.87;2.20;;;28.40;44.60;;;;;;4964360;28;20745;-47
2022/05/17 10:15:26;;;;;;;3.80;1.50;;;28.30;43.80;;;;;;4983422;28;20210;-46
2022/05/17 10:17:59;;;;;;;3.25;2.00;;;28.40;43.90;;;;;;4969564;28;20253;-46
2022/05/17 10:20:34;;;;;;;4.07;2.13;;;28.50;44.70;;;;;;4978373;28;20213;-46
2022/05/17 10:23:04;;;;;;;3.20;2.13;;;28.60;44.30;;;;;;4970980;28;20234;-46
2022/05/17 10:25:44;;;;;;;4.90;1.88;;;28.50;45.40;;;;;;4976586;28;20197;-47
2022/05/17 10:28:22;;;;;;;3.57;2.30;;;28.40;44.60;;;;;;4980473;28;20322;-47
2022/05/17 10:31:14;;;;;;;2.57;2.20;;;28.20;45.40;;;;;;4978823;28;20329;-48
2022/05/17 10:34:24;;;;;;;2.07;1.70;;;28.00;44.50;;;;;;4975863;28;20214;-47
2022/05/17 10:36:57;;;;;;;4.30;1.60;;;27.70;44.30;;;;;;4981662;28;20318;-47
2022/05/17 10:39:31;;;;;;;2.27;1.83;;;27.30;45.30;;;;;;4976841;28;20301;-47
2022/05/17 10:41:58;;;;;;;5.13;1.77;;;27.30;44.80;;;;;;4949930;28;20470;-47
2022/05/17 10:44:37;;;;;;;3.20;1.57;;;27.20;44.40;;;;;;4976613;28;20506;-47
2022/05/17 10:47:09;;;;;;;2.90;2.10;;;27.00;45.00;;;;;;4977763;28;20461;-47
2022/05/17 10:50:00;;;;;;;3.83;2.17;;;26.70;46.40;;;;;;4980898;28;20461;-47
2022/05/17 10:52:57;;;;;;;2.80;2.20;;;26.60;46.70;;;;;;4976204;28;21082;-47
2022/05/17 10:55:31;;;;;;;5.50;2.30;;;26.40;47.10;;;;;;4959829;28;20781;-47
2022/05/17 10:58:33;;;;;;;4.03;2.13;;;26.20;46.10;;;;;;4976485;28;20539;-47
2022/05/17 11:01:10;;;;;;;4.73;1.83;;;26.00;46.30;;;;;;4980031;28;20947;-47
2022/05/17 11:04:04;;;;;;;5.13;2.13;;;25.80;46.90;;;;;;4979989;28;20566;-47
2022/05/17 11:06:32;;;;;;;3.43;2.13;;;25.80;48.20;;;;;;4985065;28;20538;-50
2022/05/17 11:09:05;;;;;;;4.43;2.60;;;25.60;48.00;;;;;;4985585;28;20519;-50
2022/05/17 11:11:35;;;;;;;6.93;2.27;;;25.60;47.80;;;;;;4990453;28;20456;-50
2022/05/17 11:14:30;;;;;;;2.20;1.93;;;25.50;48.50;;;;;;4985504;28;20457;-50
2022/05/17 11:17:37;;;;;;;6.10;2.30;;;25.40;48.60;;;;;;4986442;28;20836;-50
2022/05/17 11:20:13;;;;;;;3.30;2.23;;;25.50;49.40;;;;;;4985091;28;20561;-50
2022/05/17 11:23:17;;;;;;;3.20;2.60;;;25.40;49.30;;;;;;4983716;28;20500;-50
2022/05/17 11:26:06;;;;;;;2.60;2.40;;;25.30;48.60;;;;;;4963003;28;20495;-50
2022/05/17 11:28:55;;;;;;;4.53;2.30;;;25.20;49.20;;;;;;4984507;28;20464;-50
2022/05/17 11:31:53;;;;;;;3.60;2.37;;;25.10;49.10;;;;;;4986014;28;20477;-50
2022/05/17 11:34:23;;;;;;;2.87;1.80;;;25.10;49.60;;;;;;4981597;28;20464;-50
2022/05/17 11:37:02;;;;;;;4.10;2.33;;;25.10;48.90;;;;;;4983324;28;20469;-50
2022/05/17 11:39:32;;;;;;;7.97;2.30;;;25.10;49.40;;;;;;4981544;28;21000;-50
2022/05/17 11:42:07;;;;;;;3.60;2.00;;;25.00;49.30;;;;;;4961212;28;20479;-50
2022/05/17 11:44:45;;;;;;;2.10;1.90;;;25.10;49.10;;;;;;4981891;28;20530;-50
2022/05/17 11:47:36;;;;;;;3.67;2.70;;;25.10;48.90;;;;;;4980238;28;20457;-50
2022/05/17 11:50:15;;;;;;;5.30;2.20;;;25.20;48.70;;;;;;4974990;28;21150;-50
2022/05/17 11:52:44;;;;;;;2.57;1.87;;;25.30;49.20;;;;;;4981032;28;20866;-50
2022/05/17 11:55:15;;;;;;;3.60;1.70;;;25.40;48.70;;;;;;4981004;28;20456;-50
2022/05/17 11:57:48;;;;;;;3.00;1.57;;;25.50;48.80;;;;;;4980358;28;20828;-50
2022/05/17 12:00:42;;;;;;;3.23;2.10;;;25.50;48.50;;;;;;4977432;28;20469;-50
2022/05/17 12:03:40;;;;;;;3.80;2.00;;;25.60;48.10;;;;;;4977575;28;20496;-50
2022/05/17 12:06:10;;;;;;;3.53;1.90;;;25.70;47.60;;;;;;4978895;28;20827;-50
2022/05/17 12:08:43;;;;;;;3.90;2.47;;;25.70;48.80;;;;;;4978499;28;20457;-50
2022/05/17 12:11:10;;;;;;;4.00;1.50;;;25.80;48.30;;;;;;4980777;28;20465;-50
2022/05/17 12:13:52;;;;;;;3.50;2.03;;;25.80;47.70;;;;;;4977384;28;20450;-50
2022/05/17 12:16:24;;;;;;;2.40;1.70;;;25.80;47.30;;;;;;4980943;28;20565;-50
2022/05/17 12:18:59;;;;;;;4.00;2.00;;;25.90;47.70;;;;;;4983373;28;20512;-50
2022/05/17 12:22:04;;;;;;;2.27;1.63;;;25.90;47.50;;;;;;4984906;28;20475;-50
2022/05/17 12:25:05;;;;;;;3.90;1.70;;;26.00;47.20;;;;;;4931845;29;20483;-50
2022/05/17 12:27:35;;;;;;;2.27;1.67;;;26.00;47.30;;;;;;4930813;29;20463;-50
2022/05/17 12:33:18;;;;;;;2.27;1.83;;;26.00;46.60;;;;;;4981571;28;20465;-49
2022/05/17 12:35:47;;;;;;;2.30;1.60;;;26.00;46.90;;;;;;4979846;28;20890;-49
2022/05/17 12:44:17;;;;;;;1.93;1.70;;;26.00;47.40;;;;;;4984700;28;20489;-49
2022/05/17 12:46:46;;;;;;;2.73;1.50;;;26.10;47.20;;;;;;4982550;28;20214;-48
2022/05/17 12:49:18;;;;;;;2.60;1.70;;;26.10;46.80;;;;;;4986674;28;20548;-49
2022/05/17 12:51:54;;;;;;;5.67;2.00;;;26.00;46.70;;;;;;4984076;28;20891;-50
2022/05/17 12:54:29;;;;;;;1.70;1.60;;;26.00;47.30;;;;;;4978992;28;20469;-49
2022/05/17 12:57:26;;;;;;;6.03;2.20;;;26.00;48.30;;;;;;4961083;28;20475;-49
2022/05/17 13:00:13;;;;;;;3.70;2.10;;;26.00;47.10;;;;;;4978462;28;20457;-50
2022/05/17 13:02:46;;;;;;;4.20;1.93;;;26.00;48.10;;;;;;4983031;28;20507;-50
2022/05/17 13:05:33;;;;;;;3.67;2.17;;;26.00;47.60;;;;;;4984474;28;20460;-50
2022/05/17 13:08:05;;;;;;;1.80;1.10;;;26.10;47.40;;;;;;4980587;28;20464;-49
2022/05/17 13:10:34;;;;;;;1.37;1.17;;;26.20;46.80;;;;;;4984795;28;20910;-49
2022/05/17 13:13:15;;;;;;;3.03;1.87;;;26.20;46.10;;;;;;4982590;28;20472;-49
2022/05/17 13:15:49;;;;;;;1.30;1.20;;;26.20;46.90;;;;;;4980208;28;20472;-49
2022/05/17 13:18:18;;;;;;;2.50;1.30;;;26.30;45.80;;;;;;4981565;28;20468;-49
2022/05/17 13:20:48;;;;;;;2.30;1.30;;;26.30;45.70;;;;;;4981113;28;20469;-49
2022/05/17 13:23:22;;;;;;;4.17;1.30;;;26.30;45.50;;;;;;4978006;28;20511;-49